Data for 07/07/2009

Time Sea-Level Adjusted Pressure Absolute Pressure Temperature Relative Humidity Dew Point   
(mb) (inHg) (mb) (inHg) (C) (F) (%) (C) (F)
00:05 1018 30.06 847 25.01 11.7 53 92 10.4 50.7
00:10 1018 30.06 847 25.01 11.5 52.8 92 10.2 50.4
00:15 1018 30.06 847 25.01 11.6 52.8 91 10.1 50.2
00:20 1018 30.06 847 25.01 11.6 53 91 10.3 50.5
00:25 1018 30.06 847 25.01 11.6 52.8 92 10.3 50.6
00:30 1018 30.06 847 25.01 11.5 52.6 92 10.3 50.5
00:35 1018 30.06 847 25.01 11.5 52.6 92 10.2 50.3
00:40 1018 30.06 847 25.01 11.5 52.6 91 10.1 50.1
00:45 1018 30.06 847 25.01 11.5 52.8 91 10.1 50.1
00:50 1018 30.06 847 25.01 11.5 52.7 91 10.1 50.2
00:55 1018 30.06 847 25.01 11.5 52.6 91 10.1 50.1
01:00 1018 30.06 847 25.01 11.4 52.5 91 10 50
01:05 1018 30.06 847 25.01 11.4 52.5 91 10 49.9
01:10 1018 30.06 847 25.01 11.3 52.3 91 9.9 49.8
01:15 1018 30.06 847 25.01 11.2 52.2 91 9.8 49.7
01:20 1018 30.06 847 25.01 11.2 52.1 91 9.7 49.5
01:25 1018 30.06 847 25.01 11.2 52.1 90 9.7 49.4
01:30 1018 30.06 847 25.01 11.3 52.3 90 9.7 49.5
01:35 1018 30.06 847 25.01 11.3 52.3 90 9.8 49.6
01:40 1018 30.06 847 25.01 11.3 52.3 90 9.7 49.5
01:45 1018 30.06 847 25.01 11.3 52.4 90 9.7 49.5
01:50 1018 30.06 847 25.01 11.3 52.3 90 9.7 49.5
01:55 1018 30.06 847 25.01 11.2 52.1 90 9.5 49.2
02:00 1018 30.06 847 25.01 11.2 52.1 90 9.5 49.2
02:05 1018 30.06 847 25.01 11.2 52.2 89 9.5 49.1
02:10 1018 30.06 847 25.01 11.3 52.4 88 9.4 48.9
02:15 1018 30.06 847 25.01 11.3 52.3 88 9.4 48.9
02:20 1018 30.06 847 25.01 11.2 52.2 89 9.5 49.2
02:25 1018 30.06 847 25.01 11.1 52 88 9.2 48.5
02:30 1018 30.06 847 25.01 11.1 51.9 87 9 48.2
02:35 1018 30.06 847 25.01 10.9 51.7 89 9.1 48.4
02:40 1018 30.06 847 25.01 10.9 51.5 88 8.9 48.1
02:45 1018 30.06 847 25.01 10.8 51.4 88 8.8 47.8
02:50 1018 30.06 847 25.01 10.8 51.4 87 8.7 47.7
02:55 1018 30.06 847 25.01 10.7 51.3 88 8.8 47.9
03:00 1018 30.06 847 25.01 10.7 51.2 84 8.1 46.6
03:05 1018 30.06 847 25.01 10.8 51.4 86 8.6 47.4
03:10 1018 30.06 847 25.01 10.7 51.2 85 8.3 46.9
03:15 1018 30.06 847 25.01 10.6 51 86 8.4 47.1
03:20 1018 30.06 847 25.01 10.5 51 88 8.6 47.4
03:25 1018 30.06 847 25.01 10.4 50.7 89 8.7 47.6
03:30 1018 30.06 847 25.01 10.2 50.3 89 8.5 47.3
03:35 1018 30.06 847 25.01 9.9 49.9 90 8.4 47.1
03:40 1018 30.06 847 25.01 9.8 49.6 90 8.1 46.6
03:45 1018 30.06 847 25.01 9.8 49.6 89 8 46.4
03:50 1018 30.06 847 25.01 9.9 49.9 88 8.1 46.5
03:55 1018 30.06 847 25.01 10 50.1 87 8 46.3
04:00 1018 30.06 847 25.01 10 50 88 8.2 46.7
04:05 1018 30.06 847 25.01 9.7 49.5 90 8.1 46.7
04:10 1018 30.06 847 25.01 9.6 49.2 90 8 46.4
04:15 1018 30.06 847 25.01 9.4 49 90 7.9 46.2
04:20 1018 30.06 847 25.01 9.3 48.8 90 7.7 45.9
04:25 1018 30.06 847 25.01 9.4 48.9 90 7.8 46
04:30 1017 30.03 847 25.01 9.4 48.9 88 7.5 45.5
04:35 1017 30.03 847 25.01 9.5 49.2 86 7.3 45.1
04:40 1017 30.03 847 25.01 9.6 49.3 86 7.4 45.3
04:45 1017 30.03 847 25.01 9.8 49.7 85 7.5 45.5
04:50 1017 30.03 847 25.01 9.8 49.7 85 7.5 45.4
04:55 1017 30.03 847 25.01 9.7 49.4 87 7.6 45.6
05:00 1017 30.03 846 24.98 9.4 48.9 87 7.3 45.2
05:05 1017 30.03 846 24.98 9.3 48.8 87 7.3 45.1
05:10 1017 30.03 846 24.98 9.4 48.9 86 7.1 44.8
05:15 1017 30.03 846 24.98 9.5 49 85 7.1 44.7
05:20 1017 30.03 846 24.98 9.5 49.1 85 7.1 44.8
05:25 1017 30.03 846 24.98 9.5 49.1 85 7.2 44.9
05:30 1017 30.03 846 24.98 9.4 49 85 7.1 44.8
05:35 1017 30.03 846 24.98 9.4 48.9 85 7 44.6
05:40 1017 30.03 846 24.98 9.4 48.8 85 7 44.6
05:45 1017 30.03 846 24.98 9.3 48.8 84 6.8 44.2
05:50 1017 30.03 846 24.98 9.3 48.8 86 7.1 44.8
05:55 1017 30.03 846 24.98 9 48.1 87 6.8 44.3
06:00 1017 30.03 846 24.98 8.9 48.1 86 6.7 44.1
06:05 1017 30.03 846 24.98 9.1 48.3 85 6.6 44
06:10 1017 30.03 846 24.98 9.4 48.9 82 6.5 43.7
06:15 1017 30.03 846 24.98 9.5 49.2 82 6.6 43.9
06:20 1017 30.03 846 24.98 9.4 48.9 83 6.6 43.9
06:25 1017 30.03 846 24.98 9.1 48.4 84 6.5 43.8
06:30 1017 30.03 846 24.98 9.2 48.5 83 6.4 43.5
06:35 1017 30.03 846 24.98 9.3 48.7 83 6.5 43.8
06:40 1017 30.03 846 24.98 9.3 48.7 83 6.6 43.8
06:45 1017 30.03 846 24.98 9.3 48.8 83 6.6 43.9
06:50 1017 30.03 846 24.98 9.4 49 83 6.7 44
06:55 1017 30.03 846 24.98 9.5 49.1 83 6.8 44.2
07:00 1017 30.03 846 24.98 9.6 49.2 83 6.8 44.3
07:05 1017 30.03 846 24.98 9.8 49.7 82 6.9 44.4
07:10 1017 30.03 846 24.98 10.2 50.3 79 6.8 44.2
07:15 1017 30.03 846 24.98 10.4 50.8 80 7.1 44.8
07:20 1017 30.03 846 24.98 10.6 51.1 80 7.3 45.1
07:25 1017 30.03 846 24.98 10.6 51 79 7 44.6
07:30 1017 30.03 846 24.98 10.6 51 79 7.1 44.7
07:35 1017 30.03 846 24.98 10.9 51.7 78 7.4 45.2
07:40 1017 30.03 846 24.98 11.4 52.6 74 7.1 44.7
07:45 1017 30.03 846 24.98 11.4 52.6 76 7.4 45.3
07:50 1017 30.03 846 24.98 11.8 53.2 74 7.3 45.1
07:55 1017 30.03 846 24.98 12.3 54.1 72 7.4 45.4
08:00 1017 30.03 846 24.98 12.8 55 68 7.1 44.7
08:05 1017 30.03 846 24.98 12.7 54.8 71 7.6 45.7
08:10 1017 30.03 846 24.98 13.2 55.8 69 7.7 45.9
08:15 1017 30.03 846 24.98 13.2 55.7 70 7.8 46.1
08:20 1017 30.03 846 24.98 13.4 56.2 69 7.8 46.1
08:25 1017 30.03 846 24.98 14 57.2 66 7.8 46.1
08:30 1017 30.03 846 24.98 14.4 57.9 66 8.1 46.6
08:35 1017 30.03 846 24.98 14.5 58.1 64 7.8 46.1
08:40 1017 30.03 846 24.98 14.9 58.9 62 7.9 46.1
08:45 1017 30.03 846 24.98 15.6 60.1 60 7.9 46.2
08:50 1017 30.03 846 24.98 15.7 60.2 58 7.5 45.5
08:55 1017 30.03 846 24.98 15.5 59.9 58 7.4 45.2
09:00 1017 30.03 846 24.98 16.2 61.1 56 7.5 45.5
09:05 1017 30.03 846 24.98 16.8 62.3 55 7.9 46.3
09:10 1017 30.03 846 24.98 16.3 61.3 57 7.9 46.3
09:15 1017 30.03 846 24.98 16.5 61.7 55 7.4 45.4
09:20 1017 30.03 846 24.98 16.9 62.4 55 7.8 46.1
09:25 1017 30.03 846 24.98 17.3 63.2 52 7.5 45.6
09:30 1017 30.03 846 24.98 17.9 64.2 51 7.7 45.8
09:35 1017 30.03 846 24.98 17.4 63.3 52 7.6 45.6
09:40 1017 30.03 846 24.98 17.3 63.2 54 8 46.4
09:45 1017 30.03 846 24.98 17.8 64 52 7.8 46
09:50 1016 30 846 24.98 18.3 64.9 49 7.6 45.7
09:55 1016 30 846 24.98 18.2 64.8 50 7.8 46
10:00 1016 30 846 24.98 18.5 65.3 51 8.3 46.9
10:05 1016 30 846 24.98 18.3 64.9 52 8.4 47.1
10:10 1016 30 845 24.95 17.6 63.8 54 8.4 47.2
10:15 1016 30 845 24.95 17.2 63 55 8.3 46.9
10:20 1016 30 845 24.95 17.6 63.7 53 8.1 46.6
10:25 1016 30 845 24.95 17.4 63.4 52 7.7 45.8
10:30 1016 30 845 24.95 17.5 63.6 54 8.1 46.6
10:35 1016 30 845 24.95 18.3 64.9 51 8.2 46.7
10:40 1016 30 845 24.95 18.6 65.5 51 8.4 47
10:45 1016 30 845 24.95 18.8 65.8 49 7.9 46.3
10:50 1016 30 845 24.95 19.8 67.7 48 8.7 47.7
10:55 1016 30 845 24.95 19.4 67 47 7.9 46.2
11:00 1016 30 845 24.95 19.7 67.5 48 8.5 47.3
11:05 1016 30 845 24.95 19.2 66.5 48 8.2 46.7
11:10 1016 30 845 24.95 20 68.1 48 8.8 47.9
11:15 1016 30 845 24.95 20.2 68.4 49 9.3 48.7
11:20 1016 30 845 24.95 19.8 67.6 49 8.9 48
11:25 1016 30 845 24.95 19.4 67 49 8.5 47.3
11:30 1016 30 845 24.95 20.1 68.2 48 8.8 47.9
11:35 1016 30 845 24.95 20.3 68.6 47 8.7 47.7
11:40 1016 30 845 24.95 20.7 69.3 44 8 46.4
11:45 1016 30 845 24.95 21.1 69.9 43 8.2 46.7
11:50 1016 30 845 24.95 21 69.8 46 9.1 48.4
11:55 1016 30 845 24.95 20.2 68.3 46 8.2 46.8
12:00 1016 30 845 24.95 20.9 69.6 42 7.5 45.6
12:05 1016 30 845 24.95 21.6 70.9 42 8.2 46.7
12:10 1016 30 845 24.95 21.4 70.4 41 7.9 46.2
12:15 1016 30 845 24.95 21.2 70.2 41 7.5 45.5
12:20 1015 29.97 845 24.95 22.1 71.7 38 7.1 44.8
12:25 1015 29.97 845 24.95 23 73.3 36 7.4 45.3
12:30 1015 29.97 845 24.95 22.3 72.1 40 8.3 46.9
12:35 1015 29.97 845 24.95 22.2 71.9 39 7.6 45.7
12:40 1015 29.97 844 24.92 21.8 71.2 39 7.4 45.3
12:45 1015 29.97 844 24.92 22.7 72.9 34 6.2 43.2
12:50 1015 29.97 844 24.92 23.3 73.9 35 7 44.6
12:55 1015 29.97 844 24.92 23 73.3 36 7.4 45.3
13:00 1015 29.97 844 24.92 21.9 71.5 36 6.3 43.4
13:05 1015 29.97 844 24.92 21.9 71.5 33 5.1 41.2
13:10 1015 29.97 844 24.92 23 73.3 33 5.8 42.5
13:15 1015 29.97 844 24.92 23.4 74 31 5.5 41.9
13:20 1015 29.97 844 24.92 24.2 75.5 33 6.9 44.5
13:25 1015 29.97 844 24.92 22.8 73.1 33 5.9 42.7
13:30 1015 29.97 844 24.92 23.3 73.9 31 5.3 41.6
13:35 1015 29.97 844 24.92 24.2 75.5 28 4.8 40.6
13:40 1015 29.97 844 24.92 23.9 75 29 4.8 40.6
13:45 1015 29.97 844 24.92 23.7 74.6 28 4.1 39.4
13:50 1014 29.94 844 24.92 24.7 76.4 29 5.9 42.6
13:55 1014 29.94 844 24.92 24.5 76.2 30 5.8 42.5
14:00 1014 29.94 843 24.89 24.4 76 28 4.8 40.7
14:05 1014 29.94 843 24.89 25.3 77.5 27 5 41
14:10 1014 29.94 843 24.89 25.3 77.5 24 3.7 38.7
14:15 1014 29.94 843 24.89 26.2 79.1 23 3.9 39
14:20 1014 29.94 843 24.89 26.2 79.1 24 4.2 39.5
14:25 1014 29.94 843 24.89 25.8 78.4 25 4.7 40.5
14:30 1014 29.94 843 24.89 25.3 77.6 25 4.2 39.5
14:35 1014 29.94 843 24.89 24.1 75.4 28 4.8 40.7
14:40 1014 29.94 843 24.89 24.3 75.7 27 4 39.3
14:45 1014 29.94 843 24.89 24.3 75.7 26 3.9 39.1
14:50 1014 29.94 843 24.89 24.1 75.3 27 4 39.2
14:55 1014 29.94 843 24.89 23.6 74.4 29 4.6 40.4
15:00 1014 29.94 843 24.89 23.3 73.9 27 3.2 37.8
15:05 1014 29.94 843 24.89 25 77 25 3.8 38.8
15:10 1014 29.94 843 24.89 25.2 77.4 24 3.5 38.2
15:15 1014 29.94 843 24.89 25.6 78 23 3.4 38.1
15:20 1014 29.94 843 24.89 25.7 78.2 24 3.7 38.6
15:25 1014 29.94 843 24.89 25.5 77.9 25 4.4 39.8
15:30 1014 29.94 843 24.89 25.1 77.2 22 2.4 36.4
15:35 1014 29.94 843 24.89 26.1 78.9 20 1.8 35.2
15:40 1014 29.94 843 24.89 26.7 80 20 1.9 35.5
15:45 1013 29.91 843 24.89 25.4 77.8 23 3.1 37.6
15:50 1013 29.91 843 24.89 24.9 76.8 22 2.1 35.7
15:55 1013 29.91 843 24.89 25.1 77.2 22 2.4 36.3
16:00 1013 29.91 842 24.86 25.2 77.4 22 2.3 36.2
16:05 1013 29.91 842 24.86 25.4 77.8 22 2.7 36.8
16:10 1013 29.91 842 24.86 25 77 23 2.6 36.8
16:15 1013 29.91 842 24.86 24.9 76.8 23 2.8 37
16:20 1013 29.91 842 24.86 25.5 77.8 22 2.2 35.9
16:25 1013 29.91 842 24.86 24.8 76.7 22 1.8 35.2
16:30 1013 29.91 842 24.86 25.2 77.3 22 2 35.6
16:35 1013 29.91 842 24.86 25.2 77.4 21 1.6 34.9
16:40 1013 29.91 842 24.86 25.2 77.3 22 2.4 36.3
16:45 1013 29.91 842 24.86 25.5 78 21 2.1 35.8
16:50 1013 29.91 842 24.86 25.7 78.3 20 1.5 34.7
16:55 1013 29.91 842 24.86 26.1 78.9 20 1.8 35.3
17:00 1013 29.91 842 24.86 25.3 77.5 22 2.5 36.5
17:05 1013 29.91 842 24.86 25.3 77.5 21 2 35.5
17:10 1013 29.91 842 24.86 26.4 79.5 21 2.4 36.3
17:15 1013 29.91 842 24.86 26 78.7 22 2.8 37
17:20 1013 29.91 842 24.86 26 78.8 21 2.4 36.2
17:25 1013 29.91 842 24.86 26.5 79.7 20 2 35.6
17:30 1013 29.91 842 24.86 26.9 80.4 20 2.4 36.4
17:35 1013 29.91 842 24.86 24.8 76.6 25 3.7 38.7
17:40 1013 29.91 842 24.86 24.9 76.9 23 2.8 37.1
17:45 1012 29.88 842 24.86 24.7 76.4 23 2.7 36.9
17:50 1012 29.88 842 24.86 24.4 75.8 24 2.5 36.5
17:55 1012 29.88 842 24.86 24.4 76 24 2.7 36.9
18:00 1012 29.88 842 24.86 24.1 75.4 24 2.3 36.1
18:05 1012 29.88 842 24.86 23.9 75.1 25 3 37.4
18:10 1012 29.88 842 24.86 23.4 74.1 27 3.4 38.2
18:15 1012 29.88 842 24.86 22.9 73.3 26 2.7 36.9
18:20 1013 29.91 842 24.86 23.2 73.8 27 3.3 38
18:25 1013 29.91 842 24.86 23.2 73.8 29 4.5 40.2
18:30 1013 29.91 842 24.86 22.5 72.4 32 5.2 41.4
18:35 1013 29.91 842 24.86 21.9 71.3 34 5.3 41.5
18:40 1013 29.91 842 24.86 21.7 71 33 5.1 41.1
18:45 1013 29.91 842 24.86 21.4 70.6 35 5.4 41.7
18:50 1013 29.91 842 24.86 21 69.8 36 5.6 42
18:55 1013 29.91 842 24.86 20.9 69.6 36 5.6 42.1
19:00 1013 29.91 842 24.86 20.7 69.3 38 6 42.7
19:05 1013 29.91 842 24.86 20.2 68.3 40 6.3 43.3
19:10 1013 29.91 842 24.86 19.8 67.7 40 6.1 42.9
19:15 1013 29.91 842 24.86 19.9 67.8 40 6.2 43.1
19:20 1013 29.91 842 24.86 20.1 68.2 40 6.4 43.5
19:25 1013 29.91 842 24.86 19.9 67.8 39 5.9 42.5
19:30 1013 29.91 842 24.86 19.9 67.9 39 5.9 42.6
19:35 1013 29.91 842 24.86 19.7 67.5 41 6.2 43.2
19:40 1014 29.94 843 24.89 19.5 67 42 6.3 43.3
19:45 1013 29.91 843 24.89 19.2 66.5 46 7.4 45.4
19:50 1013 29.91 843 24.89 18.8 65.9 49 8.1 46.6
19:55 1013 29.91 843 24.89 18.4 65.1 50 7.9 46.1
20:00 1013 29.91 843 24.89 18.2 64.7 49 7.5 45.4
20:05 1013 29.91 843 24.89 18 64.4 49 7.3 45.2
20:10 1013 29.91 843 24.89 17.9 64.2 49 7.3 45.1
20:15 1013 29.91 843 24.89 17.7 63.8 48 6.6 43.9
20:20 1014 29.94 843 24.89 17.8 64 48 6.6 43.9
20:25 1013 29.91 843 24.89 17.8 64 50 7.3 45.1
20:30 1013 29.91 843 24.89 17.4 63.4 52 7.5 45.5
20:35 1013 29.91 843 24.89 17 62.6 55 8 46.4
20:40 1013 29.91 843 24.89 16 60.8 62 8.9 47.9
20:45 1013 29.91 843 24.89 15.6 60 62 8.3 46.9
20:50 1013 29.91 843 24.89 15.5 59.8 64 8.8 47.8
20:55 1014 29.94 843 24.89 15 59.1 64 8.3 46.9
21:00 1014 29.94 843 24.89 15.2 59.4 61 7.7 45.9
21:05 1014 29.94 843 24.89 15.3 59.5 61 7.9 46.3
21:10 1014 29.94 843 24.89 15.2 59.4 59 7.4 45.3
21:15 1014 29.94 843 24.89 15.3 59.6 60 7.8 46
21:20 1014 29.94 843 24.89 15.1 59.2 62 8 46.4
21:25 1014 29.94 843 24.89 14.9 58.9 63 8 46.4
21:30 1014 29.94 843 24.89 14.9 58.8 62 7.7 45.9
21:35 1014 29.94 843 24.89 15 59 62 7.8 46
21:40 1014 29.94 843 24.89 15.1 59.1 60 7.3 45.2
21:45 1014 29.94 843 24.89 15 59 61 7.5 45.6
21:50 1014 29.94 843 24.89 14.9 58.7 63 7.9 46.2
21:55 1014 29.94 843 24.89 14.5 58 67 8.4 47.1
22:00 1014 29.94 843 24.89 14 57.1 68 8.2 46.8
22:05 1014 29.94 843 24.89 13.8 56.9 66 7.6 45.6
22:10 1014 29.94 843 24.89 14 57.3 64 7.4 45.3
22:15 1014 29.94 843 24.89 14.1 57.4 63 7.3 45.2
22:20 1014 29.94 843 24.89 14 57.1 66 7.7 45.8
22:25 1014 29.94 843 24.89 13.8 56.8 65 7.4 45.4
22:30 1014 29.94 843 24.89 13.7 56.6 66 7.5 45.5
22:35 1014 29.94 843 24.89 13.6 56.5 66 7.4 45.4
22:40 1014 29.94 844 24.92 13.7 56.6 65 7.2 45
22:45 1014 29.94 844 24.92 13.8 56.8 66 7.6 45.7
22:50 1014 29.94 844 24.92 13.5 56.2 65 7.1 44.7
22:55 1014 29.94 844 24.92 13.9 57.1 61 6.6 44
23:00 1014 29.94 844 24.92 14.2 57.5 65 7.8 46
23:05 1014 29.94 844 24.92 13.7 56.7 66 7.5 45.5
23:10 1015 29.97 844 24.92 13.6 56.5 66 7.5 45.5
23:15 1015 29.97 844 24.92 13.5 56.3 68 7.7 45.9
23:20 1015 29.97 844 24.92 13.1 55.5 72 8.1 46.6
23:25 1015 29.97 844 24.92 11.8 53.3 76 7.7 45.9
23:30 1015 29.97 844 24.92 11.4 52.6 76 7.3 45.2
23:35 1015 29.97 844 24.92 11.2 52.1 77 7.3 45.1
23:40 1015 29.97 844 24.92 11.3 52.3 74 6.8 44.2
23:45 1015 29.97 844 24.92 11.8 53.2 73 7 44.6
23:50 1015 29.97 844 24.92 11.9 53.3 73 7.2 45
23:55 1015 29.97 844 24.92 11.6 52.9 74 7.3 45.1
24:00 1015 29.97 844 24.92 11.4 52.5 75 7.1 44.8